Red Zed I — PJMO — position and weather

sailwx.info

Track history (hours):
 
Tides and Currents Weather Stations Pressure Air Temp Water Temp Dewpoint Dewpoint Depression Visibility Wind Speed Wind Dir Waves Ship Positions

Red Zed I

Last reported at 2017-Sep-17 11:47 UTC. Time now 2017-Sep-19 22:40 UTC.
Position N 01°14' E 104°03'.

Length 217 m; draft 8.5 m.

Type: Cargo ship. MMSI: 306095000.

Date/timePositionNaut miles runAvg speedWind from/ knotsBaromVisibWave heightAir tempDewpointWater temp
2017-Sep-17 11:47N 01°14' E 104°03'310.4
2017-Sep-17 11:30N 01°14' E 103°60'510.5
2017-Sep-17 11:00N 01°12' E 103°55'510.3
2017-Sep-17 10:30N 01°11' E 103°50'4 9.1
2017-Sep-17 10:00N 01°08' E 103°46'510.4
2017-Sep-17 09:30N 01°05' E 103°42'5 9.6
2017-Sep-17 09:00N 01°04' E 103°38'5 9.1
2017-Sep-17 08:30N 01°07' E 103°34'3 6.8
2017-Sep-17 08:00N 01°10' E 103°34'510.5
2017-Sep-17 07:30N 01°11' E 103°39'3 5.6
2017-Sep-17 07:00N 01°11' E 103°42'0 0.1
2017-Sep-17 06:26N 01°11' E 103°42'0 0.0
2017-Sep-17 05:56N 01°11' E 103°42'0 0.0
2017-Sep-17 05:26N 01°11' E 103°42'0 0.0
2017-Sep-17 04:56N 01°11' E 103°42'0 0.0
2017-Sep-17 04:29N 01°11' E 103°42'0 0.0
2017-Sep-17 03:53N 01°11' E 103°42'0 0.0
2017-Sep-17 03:29N 01°11' E 103°42'0 0.0
2017-Sep-17 02:53N 01°11' E 103°42'0 0.0
2017-Sep-17 02:29N 01°11' E 103°42'0 0.0
2017-Sep-17 01:53N 01°11' E 103°42'0 0.0
2017-Sep-17 01:26N 01°11' E 103°42'0 0.0
2017-Sep-17 00:56N 01°11' E 103°42'0 0.0
2017-Sep-17 00:29N 01°11' E 103°42'0 0.0
2017-Sep-16 23:59N 01°11' E 103°42'0 0.0
2017-Sep-16 23:30N 01°11' E 103°42'1 1.6
2017-Sep-16 23:00N 01°11' E 103°41'3 5.6
2017-Sep-16 22:30N 01°12' E 103°39'3 6.2
2017-Sep-16 22:00N 01°12' E 103°36'3 5.2
2017-Sep-16 21:30N 01°11' E 103°33'4 8.6
2017-Sep-16 21:00N 01°11' E 103°29'4 7.7
2017-Sep-16 20:30N 01°12' E 103°25'5 9.3
2017-Sep-16 20:00N 01°15' E 103°21'5 9.0
2017-Sep-16 19:30N 01°18' E 103°18'  
Track history (hours):
 
Tides and Currents Weather Stations Pressure Air Temp Water Temp Dewpoint Dewpoint Depression Visibility Wind Speed Wind Dir Waves Ship Positions

Red Zed I

Last reported at 2017-Sep-17 11:47 UTC. Time now 2017-Sep-19 22:40 UTC.
Position N 01°14' E 104°03'.

Length 217 m; draft 8.5 m.

Type: Cargo ship. MMSI: 306095000.

Date/timePositionNaut miles runAvg speedWind from/ knotsBaromVisibWave heightAir tempDewpointWater temp
2017-Sep-17 11:47N 01°14' E 104°03'310.4
2017-Sep-17 11:30N 01°14' E 103°60'510.5
2017-Sep-17 11:00N 01°12' E 103°55'510.3
2017-Sep-17 10:30N 01°11' E 103°50'4 9.1
2017-Sep-17 10:00N 01°08' E 103°46'510.4
2017-Sep-17 09:30N 01°05' E 103°42'5 9.6
2017-Sep-17 09:00N 01°04' E 103°38'5 9.1
2017-Sep-17 08:30N 01°07' E 103°34'3 6.8
2017-Sep-17 08:00N 01°10' E 103°34'510.5
2017-Sep-17 07:30N 01°11' E 103°39'3 5.6
2017-Sep-17 07:00N 01°11' E 103°42'0 0.1
2017-Sep-17 06:26N 01°11' E 103°42'0 0.0
2017-Sep-17 05:56N 01°11' E 103°42'0 0.0
2017-Sep-17 05:26N 01°11' E 103°42'0 0.0
2017-Sep-17 04:56N 01°11' E 103°42'0 0.0
2017-Sep-17 04:29N 01°11' E 103°42'0 0.0
2017-Sep-17 03:53N 01°11' E 103°42'0 0.0
2017-Sep-17 03:29N 01°11' E 103°42'0 0.0
2017-Sep-17 02:53N 01°11' E 103°42'0 0.0
2017-Sep-17 02:29N 01°11' E 103°42'0 0.0
2017-Sep-17 01:53N 01°11' E 103°42'0 0.0
2017-Sep-17 01:26N 01°11' E 103°42'0 0.0
2017-Sep-17 00:56N 01°11' E 103°42'0 0.0
2017-Sep-17 00:29N 01°11' E 103°42'0 0.0
2017-Sep-16 23:59N 01°11' E 103°42'0 0.0
2017-Sep-16 23:30N 01°11' E 103°42'1 1.6
2017-Sep-16 23:00N 01°11' E 103°41'3 5.6
2017-Sep-16 22:30N 01°12' E 103°39'3 6.2
2017-Sep-16 22:00N 01°12' E 103°36'3 5.2
2017-Sep-16 21:30N 01°11' E 103°33'4 8.6
2017-Sep-16 21:00N 01°11' E 103°29'4 7.7
2017-Sep-16 20:30N 01°12' E 103°25'5 9.3
2017-Sep-16 20:00N 01°15' E 103°21'5 9.0
2017-Sep-16 19:30N 01°18' E 103°18'  

Dump ship's entire track history